createdAt,value
2023-04-17T00:00:30.298Z,1.27
2023-04-17T00:01:34.053Z,1.40
2023-04-17T00:02:40.328Z,0.93
2023-04-17T00:03:45.121Z,1.00
2023-04-17T00:04:48.448Z,1.20
2023-04-17T00:05:53.966Z,1.20
2023-04-17T00:06:56.061Z,1.08
2023-04-17T00:07:59.761Z,1.15
2023-04-17T00:09:01.836Z,1.40
2023-04-17T00:10:05.744Z,0.90
2023-04-17T00:11:09.077Z,1.08
2023-04-17T00:12:12.417Z,1.17
2023-04-17T00:13:14.455Z,1.20
2023-04-17T00:14:17.582Z,1.00
2023-04-17T00:15:21.903Z,1.13
2023-04-17T00:16:27.083Z,1.10
2023-04-17T00:17:29.203Z,0.90
2023-04-17T00:18:32.209Z,1.05
2023-04-17T00:19:35.590Z,1.17
2023-04-17T00:20:38.643Z,0.93
2023-04-17T00:21:40.797Z,1.20
2023-04-17T00:22:43.920Z,1.33
2023-04-17T00:23:45.985Z,1.20
2023-04-17T00:24:48.966Z,1.10
2023-04-17T00:25:51.147Z,0.88
2023-04-17T00:26:54.131Z,1.35
2023-04-17T00:27:56.170Z,1.10
2023-04-17T00:28:59.232Z,0.90
2023-04-17T00:30:01.682Z,1.15
2023-04-17T00:31:05.363Z,0.80
2023-04-17T00:32:07.507Z,1.40
2023-04-17T00:33:10.632Z,0.98
2023-04-17T00:34:12.666Z,1.05
2023-04-17T00:35:17.391Z,1.05
2023-04-17T00:36:19.505Z,1.10
2023-04-17T00:37:22.614Z,1.00
2023-04-17T00:38:24.593Z,1.10
2023-04-17T00:39:28.181Z,0.95
2023-04-17T00:40:30.271Z,0.95
2023-04-17T00:41:33.382Z,1.00
2023-04-17T00:42:35.394Z,1.10
2023-04-17T00:43:38.557Z,1.30
2023-04-17T00:44:40.607Z,1.10
2023-04-17T00:45:43.633Z,1.25
2023-04-17T00:46:46.666Z,1.08
2023-04-17T00:47:50.775Z,1.02
2023-04-17T00:48:53.055Z,1.02
2023-04-17T00:49:55.978Z,0.93
2023-04-17T00:51:03.183Z,1.00
2023-04-17T00:52:08.420Z,1.17
2023-04-17T00:53:10.672Z,1.20
2023-04-17T00:54:14.056Z,0.95
2023-04-17T00:55:16.172Z,0.90
2023-04-17T00:56:19.236Z,0.80
2023-04-17T00:57:22.326Z,1.23
2023-04-17T00:58:25.568Z,1.30
2023-04-17T00:59:29.224Z,1.00
2023-04-17T01:00:32.318Z,0.90
2023-04-17T01:01:34.611Z,1.00
2023-04-17T01:02:38.495Z,0.98
2023-04-17T01:03:41.706Z,0.93
2023-04-17T01:04:44.981Z,1.30
2023-04-17T01:05:51.124Z,1.08
2023-04-17T01:06:55.733Z,1.35
2023-04-17T01:07:58.443Z,1.30
2023-04-17T01:09:01.547Z,1.10
2023-04-17T01:10:04.102Z,1.13
2023-04-17T01:11:07.494Z,1.10
2023-04-17T01:12:16.432Z,1.15
2023-04-17T01:13:19.495Z,1.30
2023-04-17T01:14:21.831Z,1.30
2023-04-17T01:15:24.982Z,1.38
2023-04-17T01:16:30.237Z,1.27
2023-04-17T01:17:33.328Z,1.00
2023-04-17T01:18:35.455Z,1.38
2023-04-17T01:19:38.463Z,1.33
2023-04-17T01:20:40.721Z,0.90
2023-04-17T01:21:43.679Z,1.23
2023-04-17T01:22:49.296Z,1.27
2023-04-17T01:23:53.283Z,1.27
2023-04-17T01:24:58.075Z,1.25
2023-04-17T01:26:04.684Z,1.20
2023-04-17T01:27:07.108Z,1.05
2023-04-17T01:28:11.332Z,1.00
2023-04-17T01:29:13.537Z,1.13
2023-04-17T01:30:16.964Z,1.30
2023-04-17T01:31:27.633Z,0.95
2023-04-17T01:32:31.105Z,1.40
2023-04-17T01:33:36.658Z,1.33
2023-04-17T01:34:39.768Z,1.10
2023-04-17T01:35:41.777Z,1.30
2023-04-17T01:36:45.107Z,1.40
2023-04-17T01:37:47.228Z,0.98
2023-04-17T01:38:50.412Z,1.10
2023-04-17T01:39:52.489Z,1.40
2023-04-17T01:40:56.915Z,1.23
2023-04-17T01:41:59.058Z,1.40
2023-04-17T01:43:02.397Z,1.20
2023-04-17T01:44:04.579Z,1.30
2023-04-17T01:45:08.911Z,1.10
2023-04-17T01:46:11.482Z,1.10
2023-04-17T01:47:14.588Z,1.10
2023-04-17T01:48:16.794Z,1.20
2023-04-17T01:49:19.967Z,1.63
2023-04-17T01:50:21.990Z,1.30
2023-04-17T01:51:25.916Z,1.42
2023-04-17T01:52:28.584Z,1.40
2023-04-17T01:53:32.471Z,1.35
2023-04-17T01:54:34.495Z,1.70
2023-04-17T01:55:37.487Z,1.52
2023-04-17T01:56:41.185Z,1.80
2023-04-17T01:57:44.414Z,1.80
2023-04-17T01:58:46.427Z,1.73
2023-04-17T01:59:50.021Z,1.60
2023-04-17T02:00:52.039Z,1.38
2023-04-17T02:01:59.262Z,1.50
2023-04-17T02:03:01.626Z,1.52
2023-04-17T02:04:04.958Z,1.50
2023-04-17T02:05:07.787Z,1.50
2023-04-17T02:06:11.085Z,1.73
2023-04-17T02:07:13.075Z,1.30
2023-04-17T02:08:16.130Z,1.05
2023-04-17T02:09:18.978Z,1.30
2023-04-17T02:10:21.965Z,1.50
2023-04-17T02:11:24.008Z,1.55
2023-04-17T02:12:28.707Z,1.95
2023-04-17T02:13:30.720Z,1.80
2023-04-17T02:14:33.979Z,2.53
2023-04-17T02:15:37.349Z,2.03
2023-04-17T02:16:45.756Z,2.00
2023-04-17T02:17:47.783Z,2.13
2023-04-17T02:18:51.436Z,1.90
2023-04-17T02:19:53.519Z,2.00
2023-04-17T02:20:56.589Z,1.60
2023-04-17T02:21:58.634Z,1.77
2023-04-17T02:23:02.190Z,1.95
2023-04-17T02:24:07.040Z,1.52
2023-04-17T02:25:10.486Z,1.83
2023-04-17T02:26:12.538Z,2.00
2023-04-17T02:27:15.518Z,1.95
2023-04-17T02:28:20.170Z,1.90
2023-04-17T02:29:23.196Z,1.80
2023-04-17T02:30:26.300Z,1.73
2023-04-17T02:31:32.273Z,1.73
2023-04-17T02:32:34.378Z,1.75
2023-04-17T02:33:39.786Z,1.65
2023-04-17T02:34:42.879Z,1.80
2023-04-17T02:35:46.516Z,1.83
2023-04-17T02:36:48.808Z,1.80
2023-04-17T02:37:53.206Z,2.03
2023-04-17T02:38:57.760Z,2.00
2023-04-17T02:40:00.989Z,1.92
2023-04-17T02:41:03.343Z,2.35
2023-04-17T02:42:07.439Z,2.10
2023-04-17T02:43:09.527Z,1.80
2023-04-17T02:44:13.852Z,2.10
2023-04-17T02:45:16.014Z,1.80
2023-04-17T02:46:18.943Z,1.98
2023-04-17T02:47:21.489Z,2.08
2023-04-17T02:48:24.550Z,1.90
2023-04-17T02:49:26.637Z,2.60
2023-04-17T02:50:29.729Z,1.95
2023-04-17T02:51:51.808Z,2.03
2023-04-17T02:52:54.794Z,2.63
2023-04-17T02:53:56.806Z,2.72
2023-04-17T02:54:59.964Z,2.58
2023-04-17T02:56:03.280Z,2.95
2023-04-17T02:57:07.916Z,3.55
2023-04-17T02:58:09.951Z,3.55
2023-04-17T02:59:14.683Z,3.58
2023-04-17T03:00:17.243Z,2.95
2023-04-17T03:01:20.615Z,3.55
2023-04-17T03:02:22.957Z,4.05
2023-04-17T03:03:27.059Z,2.83
2023-04-17T03:04:29.280Z,2.95
2023-04-17T03:05:32.284Z,3.85
2023-04-17T03:06:35.855Z,4.03
2023-04-17T03:07:39.976Z,3.40
2023-04-17T03:08:42.377Z,3.15
2023-04-17T03:09:46.974Z,3.53
2023-04-17T03:10:49.301Z,3.13
2023-04-17T03:11:52.537Z,3.60
2023-04-17T03:12:54.843Z,3.78
2023-04-17T03:13:57.869Z,4.85
2023-04-17T03:15:01.265Z,4.75
2023-04-17T03:16:05.656Z,4.13
2023-04-17T03:17:11.769Z,6.10
2023-04-17T03:18:14.774Z,7.00
2023-04-17T03:19:16.832Z,5.05
2023-04-17T03:20:20.046Z,6.10
2023-04-17T03:21:22.218Z,7.78
2023-04-17T03:22:26.555Z,7.50
2023-04-17T03:23:28.669Z,6.60
2023-04-17T03:24:32.808Z,6.97
2023-04-17T03:25:36.107Z,6.95
2023-04-17T03:26:39.392Z,7.15
2023-04-17T03:27:46.702Z,6.75
2023-04-17T03:28:50.935Z,6.85
2023-04-17T03:29:54.877Z,6.07
2023-04-17T03:31:00.295Z,8.75
2023-04-17T03:32:02.495Z,9.05
2023-04-17T03:33:05.761Z,8.05
2023-04-17T03:34:08.532Z,7.75
2023-04-17T03:35:11.604Z,8.32
2023-04-17T03:36:14.659Z,8.88
2023-04-17T03:37:16.891Z,6.95
2023-04-17T03:38:20.758Z,6.57
2023-04-17T03:39:22.860Z,8.15
2023-04-17T03:40:25.885Z,8.05
2023-04-17T03:41:27.953Z,8.48
2023-04-17T03:42:31.134Z,8.55
2023-04-17T03:43:33.297Z,8.15
2023-04-17T03:44:36.354Z,11.07
2023-04-17T03:45:38.413Z,10.80
2023-04-17T03:46:43.221Z,11.75
2023-04-17T03:47:47.631Z,11.35
2023-04-17T03:48:51.406Z,12.10
2023-04-17T03:49:53.506Z,12.55
2023-04-17T03:50:57.373Z,11.88
2023-04-17T03:51:59.508Z,12.40
2023-04-17T03:53:03.217Z,12.60
2023-04-17T03:54:07.698Z,10.88
2023-04-17T03:55:11.407Z,10.43
2023-04-17T03:56:13.638Z,13.10
2023-04-17T03:57:19.517Z,11.30
2023-04-17T03:58:22.525Z,11.98
2023-04-17T03:59:25.693Z,10.70
2023-04-17T04:00:28.632Z,11.60
2023-04-17T04:01:38.673Z,12.32
2023-04-17T04:02:51.450Z,10.25
2023-04-17T04:03:59.120Z,10.70
2023-04-17T04:05:02.541Z,7.75
2023-04-17T04:06:05.043Z,7.55
2023-04-17T04:07:08.129Z,8.10
2023-04-17T04:08:11.244Z,7.65
2023-04-17T04:09:21.569Z,6.45
2023-04-17T04:10:23.788Z,6.88
2023-04-17T04:11:27.109Z,5.65
2023-04-17T04:12:29.888Z,6.70
2023-04-17T04:13:33.892Z,5.40
2023-04-17T04:14:40.430Z,5.95
2023-04-17T04:15:45.149Z,6.30
2023-04-17T04:16:48.299Z,5.63
2023-04-17T04:17:52.778Z,5.10
2023-04-17T04:18:55.397Z,4.47
2023-04-17T04:19:58.505Z,5.03
2023-04-17T04:21:00.675Z,5.10
2023-04-17T04:22:16.317Z,4.80
2023-04-17T04:23:27.999Z,4.65
2023-04-17T04:24:31.750Z,4.45
2023-04-17T04:25:34.186Z,4.20
2023-04-17T04:27:05.290Z,4.18
2023-04-17T04:28:10.619Z,3.70
2023-04-17T04:29:14.296Z,4.88
2023-04-17T04:30:30.516Z,4.07
2023-04-17T04:31:41.955Z,4.43
2023-04-17T04:32:45.563Z,5.10
2023-04-17T04:33:55.057Z,4.88
2023-04-17T04:34:58.524Z,4.97
2023-04-17T04:36:02.035Z,4.47
2023-04-17T04:37:05.097Z,4.65
2023-04-17T04:38:13.910Z,4.25
2023-04-17T04:39:20.661Z,4.05
2023-04-17T04:40:24.641Z,4.50
2023-04-17T04:41:26.946Z,4.85
2023-04-17T04:42:31.353Z,3.97
2023-04-17T04:43:44.297Z,5.15
2023-04-17T04:44:47.891Z,5.03
2023-04-17T04:45:50.804Z,4.70
2023-04-17T04:46:55.463Z,4.68
2023-04-17T04:47:57.900Z,4.53
2023-04-17T04:49:02.298Z,3.40
2023-04-17T04:50:04.974Z,4.32
2023-04-17T04:51:08.308Z,4.13
2023-04-17T04:52:10.904Z,3.90
2023-04-17T04:53:13.929Z,4.05
2023-04-17T04:54:26.072Z,4.38
2023-04-17T04:55:32.233Z,4.25
2023-04-17T04:56:35.430Z,5.88
2023-04-17T04:57:37.568Z,4.85
2023-04-17T04:58:40.598Z,4.28
2023-04-17T04:59:42.630Z,5.72
2023-04-17T05:01:09.138Z,5.63
2023-04-17T05:02:16.191Z,5.93
2023-04-17T05:03:20.129Z,5.93
2023-04-17T05:04:24.540Z,6.20
2023-04-17T05:05:31.489Z,5.95
2023-04-17T05:06:33.813Z,5.97
2023-04-17T05:07:40.926Z,5.60
2023-04-17T05:08:46.271Z,5.45
2023-04-17T05:09:51.155Z,6.20
2023-04-17T05:10:53.283Z,5.63
2023-04-17T05:11:56.963Z,6.28
2023-04-17T05:12:59.056Z,7.38
2023-04-17T05:14:02.718Z,7.70
2023-04-17T05:15:10.352Z,6.68
2023-04-17T05:16:13.868Z,7.00
2023-04-17T05:17:16.066Z,6.75
2023-04-17T05:18:19.611Z,7.05
2023-04-17T05:19:21.857Z,8.25
2023-04-17T05:20:37.713Z,7.50
2023-04-17T05:21:40.837Z,6.88
2023-04-17T05:22:44.336Z,8.80
2023-04-17T05:23:49.340Z,8.25
2023-04-17T05:24:51.553Z,8.57
2023-04-17T05:25:54.614Z,8.70
2023-04-17T05:26:57.175Z,6.90
2023-04-17T05:28:00.404Z,6.63
2023-04-17T05:29:02.828Z,7.25
2023-04-17T05:30:09.124Z,7.97
2023-04-17T05:31:11.519Z,6.93
2023-04-17T05:32:17.804Z,8.30
2023-04-17T05:33:32.936Z,7.32
2023-04-17T05:34:38.651Z,7.90
2023-04-17T05:35:43.089Z,6.95
2023-04-17T05:36:45.122Z,6.82
2023-04-17T05:37:48.071Z,6.60
2023-04-17T05:38:51.841Z,7.43
2023-04-17T05:39:55.095Z,7.30
2023-04-17T05:40:58.177Z,7.85
2023-04-17T05:42:00.236Z,6.85
2023-04-17T05:43:08.204Z,7.18
2023-04-17T05:44:11.307Z,8.10
2023-04-17T05:45:15.044Z,8.30
2023-04-17T05:46:17.168Z,8.65
2023-04-17T05:47:20.402Z,11.35
2023-04-17T05:48:23.871Z,10.93
2023-04-17T05:49:27.165Z,8.88
2023-04-17T05:50:30.297Z,8.65
2023-04-17T05:51:33.797Z,9.10
2023-04-17T05:52:39.433Z,9.63
2023-04-17T05:53:45.545Z,10.63
2023-04-17T05:54:47.563Z,10.32
2023-04-17T05:55:50.704Z,8.82
2023-04-17T05:56:54.239Z,10.25
2023-04-17T05:57:58.340Z,10.50
2023-04-17T05:59:00.830Z,10.48
2023-04-17T06:00:10.614Z,10.65
2023-04-17T06:01:22.383Z,10.57
2023-04-17T06:02:28.718Z,8.52
2023-04-17T06:03:30.937Z,11.85
2023-04-17T06:04:43.787Z,10.93
2023-04-17T06:05:48.317Z,11.93
2023-04-17T06:06:51.820Z,11.50
2023-04-17T06:07:56.226Z,11.02
2023-04-17T06:08:59.591Z,12.82
2023-04-17T06:10:02.330Z,10.70
2023-04-17T06:11:06.175Z,12.50
2023-04-17T06:12:15.909Z,11.40
2023-04-17T06:13:20.299Z,12.32
2023-04-17T06:14:26.293Z,11.52
2023-04-17T06:15:29.478Z,11.43
2023-04-17T06:16:33.222Z,11.18
2023-04-17T06:17:37.062Z,10.73
2023-04-17T06:18:40.062Z,11.98
2023-04-17T06:19:43.190Z,11.70
2023-04-17T06:20:45.955Z,10.90
2023-04-17T06:21:49.358Z,11.85
2023-04-17T06:22:52.736Z,11.30
2023-04-17T06:23:55.711Z,9.50
2023-04-17T06:24:58.734Z,10.90
2023-04-17T06:26:01.692Z,11.25
2023-04-17T06:27:04.122Z,10.65
2023-04-17T06:28:07.144Z,10.48
2023-04-17T06:29:09.731Z,9.10
2023-04-17T06:30:14.562Z,9.18
2023-04-17T06:31:29.842Z,8.68
2023-04-17T06:32:33.402Z,9.32
2023-04-17T06:33:35.634Z,9.10
2023-04-17T06:34:48.889Z,8.38
2023-04-17T06:36:10.965Z,9.65
2023-04-17T06:37:22.231Z,9.40
2023-04-17T06:38:25.929Z,9.63
2023-04-17T06:39:29.210Z,9.05
2023-04-17T06:40:31.279Z,9.73
2023-04-17T06:41:34.325Z,8.50
2023-04-17T06:42:36.706Z,9.98
2023-04-17T06:43:40.103Z,8.63
2023-04-17T06:44:50.340Z,7.97
2023-04-17T06:45:53.011Z,8.52
2023-04-17T06:46:56.009Z,8.07
2023-04-17T06:47:59.040Z,8.60
2023-04-17T06:49:02.733Z,7.65
2023-04-17T06:50:06.739Z,8.55
2023-04-17T06:51:10.710Z,9.02
2023-04-17T06:52:13.982Z,9.00
2023-04-17T06:53:16.132Z,10.35
2023-04-17T06:54:20.448Z,9.10
2023-04-17T06:55:22.563Z,10.15
2023-04-17T06:56:25.816Z,8.63
2023-04-17T06:57:27.808Z,8.80
2023-04-17T06:58:30.785Z,8.25
2023-04-17T06:59:32.918Z,8.82
2023-04-17T07:00:36.047Z,8.35
2023-04-17T07:01:40.293Z,7.88
2023-04-17T07:02:43.822Z,7.80
2023-04-17T07:03:47.761Z,7.55
2023-04-17T07:04:50.031Z,8.48
2023-04-17T07:05:53.187Z,8.88
2023-04-17T07:06:56.389Z,8.30
2023-04-17T07:07:58.594Z,9.32
2023-04-17T07:09:01.944Z,8.73
2023-04-17T07:10:06.774Z,9.60
2023-04-17T07:11:09.815Z,8.85
2023-04-17T07:12:15.528Z,9.10
2023-04-17T07:13:18.562Z,10.20
2023-04-17T07:14:22.956Z,9.70
2023-04-17T07:15:26.733Z,7.88
2023-04-17T07:16:28.870Z,9.10
2023-04-17T07:17:31.983Z,9.20
2023-04-17T07:18:35.402Z,9.77
2023-04-17T07:19:39.202Z,7.90
2023-04-17T07:20:42.227Z,8.23
2023-04-17T07:21:45.287Z,8.07
2023-04-17T07:22:49.893Z,7.70
2023-04-17T07:23:53.196Z,10.32
2023-04-17T07:24:55.302Z,9.35
2023-04-17T07:25:59.618Z,9.32
2023-04-17T07:27:03.289Z,9.02
2023-04-17T07:28:06.571Z,8.77
2023-04-17T07:29:09.979Z,10.40
2023-04-17T07:30:12.787Z,9.45
2023-04-17T07:31:15.854Z,10.13
2023-04-17T07:32:19.277Z,10.00
2023-04-17T07:33:22.468Z,10.05
2023-04-17T07:34:25.279Z,10.38
2023-04-17T07:35:31.256Z,7.80
2023-04-17T07:36:34.400Z,9.35
2023-04-17T07:37:36.968Z,11.35
2023-04-17T07:38:41.230Z,9.65
2023-04-17T07:39:43.781Z,8.48
2023-04-17T07:40:46.798Z,8.50
2023-04-17T07:41:51.500Z,8.73
2023-04-17T07:42:54.414Z,7.93
2023-04-17T07:43:59.161Z,10.98
2023-04-17T07:45:01.393Z,10.45
2023-04-17T07:46:04.414Z,10.15
2023-04-17T07:47:07.653Z,9.07
2023-04-17T07:48:11.302Z,10.63
2023-04-17T07:49:13.844Z,9.82
2023-04-17T07:50:17.150Z,9.98
2023-04-17T07:51:20.281Z,9.77
2023-04-17T07:52:22.428Z,9.23
2023-04-17T07:53:25.741Z,9.57
2023-04-17T07:54:27.948Z,10.07
2023-04-17T07:55:31.180Z,9.52
2023-04-17T07:56:34.775Z,9.70
2023-04-17T07:57:42.339Z,9.90
2023-04-17T07:58:51.790Z,9.70
2023-04-17T07:59:53.856Z,9.75
2023-04-17T08:00:57.323Z,11.18
2023-04-17T08:01:59.395Z,10.23
2023-04-17T08:03:02.981Z,10.18
2023-04-17T08:04:06.435Z,9.70
2023-04-17T08:05:09.737Z,10.43
2023-04-17T08:06:12.898Z,8.82
2023-04-17T08:07:14.955Z,9.90
2023-04-17T08:08:18.010Z,10.27
2023-04-17T08:09:22.085Z,10.57
2023-04-17T08:10:25.162Z,9.25
2023-04-17T08:11:27.144Z,9.75
2023-04-17T08:12:30.449Z,8.95
2023-04-17T08:13:34.928Z,9.20
2023-04-17T08:14:38.920Z,9.02
2023-04-17T08:15:41.908Z,9.98
2023-04-17T08:16:43.987Z,9.30
2023-04-17T08:17:47.069Z,9.40
2023-04-17T08:18:50.212Z,9.25
2023-04-17T08:19:54.505Z,8.75
2023-04-17T08:20:57.463Z,9.88
2023-04-17T08:22:02.472Z,9.20
2023-04-17T08:23:06.354Z,8.82
2023-04-17T08:24:09.491Z,9.70
2023-04-17T08:25:14.776Z,9.30
2023-04-17T08:26:23.510Z,9.20
2023-04-17T08:27:25.838Z,10.38
2023-04-17T08:28:29.000Z,11.32
2023-04-17T08:29:32.370Z,11.32
2023-04-17T08:30:43.983Z,10.27
2023-04-17T08:31:47.127Z,11.07
2023-04-17T08:32:50.713Z,11.30
2023-04-17T08:34:06.237Z,11.00
2023-04-17T08:35:17.274Z,9.10
2023-04-17T08:36:19.462Z,11.32
2023-04-17T08:37:22.497Z,11.30
2023-04-17T08:38:24.708Z,11.68
2023-04-17T08:39:27.842Z,11.07
2023-04-17T08:40:31.571Z,12.60
2023-04-17T08:41:49.206Z,12.02
2023-04-17T08:42:53.765Z,12.65
2023-04-17T08:43:59.676Z,11.35
2023-04-17T08:45:05.500Z,12.00
2023-04-17T08:46:07.803Z,11.75
2023-04-17T08:47:13.173Z,13.35
2023-04-17T08:48:16.241Z,12.38
2023-04-17T08:49:18.312Z,12.35
2023-04-17T08:50:22.309Z,12.98
2023-04-17T08:51:26.323Z,13.38
2023-04-17T08:52:29.425Z,13.38
2023-04-17T08:53:33.450Z,12.75
2023-04-17T08:54:38.014Z,12.70
2023-04-17T08:55:41.178Z,13.00
2023-04-17T08:56:44.153Z,13.63
2023-04-17T08:58:06.117Z,12.52
2023-04-17T08:59:08.276Z,15.07
2023-04-17T09:00:15.666Z,14.13
2023-04-17T09:01:20.600Z,13.80
2023-04-17T09:02:24.210Z,16.73
2023-04-17T09:03:41.278Z,16.35
2023-04-17T09:04:45.261Z,14.50
2023-04-17T09:05:48.662Z,15.00
2023-04-17T09:06:54.136Z,16.27
2023-04-17T09:08:09.548Z,14.20
2023-04-17T09:09:11.912Z,15.40
2023-04-17T09:10:15.059Z,14.43
2023-04-17T09:11:18.589Z,15.25
2023-04-17T09:12:21.828Z,15.25
2023-04-17T09:13:26.087Z,15.70
2023-04-17T09:14:31.513Z,16.38
2023-04-17T09:15:37.175Z,15.77
2023-04-17T09:16:54.468Z,14.85
2023-04-17T09:17:56.657Z,15.82
2023-04-17T09:19:07.070Z,16.27
2023-04-17T09:20:11.798Z,16.25
2023-04-17T09:21:16.303Z,13.75
2023-04-17T09:22:19.545Z,15.27
2023-04-17T09:23:23.407Z,14.10
2023-04-17T09:24:36.472Z,14.00
2023-04-17T09:25:39.496Z,13.75
2023-04-17T09:26:42.543Z,15.55
2023-04-17T09:27:45.881Z,16.00
2023-04-17T09:29:03.861Z,15.98
2023-04-17T09:30:07.025Z,17.92
2023-04-17T09:31:27.599Z,14.82
2023-04-17T09:32:32.069Z,15.10
2023-04-17T09:33:35.226Z,14.05
2023-04-17T09:34:41.109Z,16.98
2023-04-17T09:35:44.152Z,17.85
2023-04-17T09:36:46.714Z,15.75
2023-04-17T09:37:52.256Z,16.05
2023-04-17T09:38:54.516Z,15.95
2023-04-17T09:39:59.352Z,17.38
2023-04-17T09:41:02.379Z,15.82
2023-04-17T09:42:06.054Z,17.60
2023-04-17T09:43:10.925Z,16.90
2023-04-17T09:44:25.803Z,16.95
2023-04-17T09:45:33.333Z,18.20
2023-04-17T09:46:38.921Z,16.10
2023-04-17T09:47:44.721Z,16.92
2023-04-17T09:48:47.752Z,16.42
2023-04-17T09:49:53.309Z,16.70
2023-04-17T09:50:56.962Z,15.63
2023-04-17T09:51:59.715Z,15.52
2023-04-17T09:53:04.151Z,16.45
2023-04-17T09:54:08.958Z,16.77
2023-04-17T09:55:12.678Z,16.95
2023-04-17T09:56:16.298Z,15.10
2023-04-17T09:57:18.736Z,17.63
2023-04-17T09:58:22.475Z,16.52
2023-04-17T09:59:25.924Z,17.30
2023-04-17T10:00:29.674Z,17.40
2023-04-17T10:01:32.793Z,17.50
2023-04-17T10:02:38.290Z,17.30
2023-04-17T10:03:42.674Z,17.27
2023-04-17T10:04:48.253Z,17.77
2023-04-17T10:05:50.438Z,17.30
2023-04-17T10:06:53.895Z,17.65
2023-04-17T10:07:59.993Z,17.52
2023-04-17T10:09:04.237Z,17.92
2023-04-17T10:10:10.916Z,17.77
2023-04-17T10:11:13.453Z,17.05
2023-04-17T10:12:19.600Z,16.95
2023-04-17T10:13:29.735Z,18.05
2023-04-17T10:14:36.338Z,18.60
2023-04-17T10:15:40.310Z,16.92
2023-04-17T10:16:43.575Z,17.70
2023-04-17T10:17:49.862Z,15.15
2023-04-17T10:19:27.806Z,16.92
2023-04-17T10:20:38.987Z,16.63
2023-04-17T10:21:41.262Z,18.55
2023-04-17T10:22:44.867Z,16.85
2023-04-17T10:23:47.193Z,17.42
2023-04-17T10:24:52.167Z,16.40
2023-04-17T10:26:30.859Z,17.77
2023-04-17T10:27:48.493Z,15.13
2023-04-17T10:28:53.095Z,16.63
2023-04-17T10:29:56.969Z,17.35
2023-04-17T10:31:01.166Z,16.83
2023-04-17T10:32:17.868Z,18.48
2023-04-17T10:33:26.346Z,15.10
2023-04-17T10:34:35.455Z,15.35
2023-04-17T10:35:38.508Z,15.90
2023-04-17T10:36:49.912Z,14.98
2023-04-17T10:38:11.635Z,16.77
2023-04-17T10:39:14.753Z,18.27
2023-04-17T10:40:21.662Z,16.25
2023-04-17T10:41:26.827Z,16.63
2023-04-17T10:42:30.194Z,15.77
2023-04-17T10:43:34.540Z,16.20
2023-04-17T10:44:40.349Z,15.75
2023-04-17T10:46:02.228Z,17.00
2023-04-17T10:47:07.132Z,16.67
2023-04-17T10:48:23.223Z,18.05
2023-04-17T10:49:26.571Z,16.55
2023-04-17T10:50:29.090Z,17.40
2023-04-17T10:51:42.099Z,18.15
2023-04-17T10:52:46.340Z,17.30
2023-04-17T10:53:49.796Z,17.08
2023-04-17T10:55:05.219Z,17.70
2023-04-17T10:56:08.970Z,16.92
2023-04-17T10:57:12.172Z,16.67
2023-04-17T10:58:15.373Z,17.20
2023-04-17T10:59:20.852Z,16.27
2023-04-17T11:00:31.619Z,18.17
2023-04-17T11:01:41.176Z,16.00
2023-04-17T11:02:47.314Z,16.48
2023-04-17T11:03:53.067Z,17.65
2023-04-17T11:05:08.141Z,17.10
2023-04-17T11:06:13.209Z,16.70
2023-04-17T11:07:17.589Z,18.23
2023-04-17T11:08:20.258Z,16.27
2023-04-17T11:09:25.240Z,15.55
2023-04-17T11:10:28.831Z,16.00
2023-04-17T11:12:48.129Z,16.35
2023-04-17T11:13:51.685Z,17.85
2023-04-17T11:15:02.250Z,16.27
2023-04-17T11:16:08.697Z,16.67
2023-04-17T11:17:11.210Z,17.45
2023-04-17T11:18:15.087Z,15.23
2023-04-17T11:19:21.529Z,17.20
2023-04-17T11:20:27.067Z,18.98
2023-04-17T11:21:31.151Z,15.23
2023-04-17T11:22:33.982Z,15.70
2023-04-17T11:23:39.294Z,15.95
2023-04-17T11:24:42.550Z,16.05
2023-04-17T11:25:46.179Z,16.50
2023-04-17T11:26:48.765Z,16.58
2023-04-17T11:27:53.114Z,17.63
2023-04-17T11:28:56.588Z,17.33
2023-04-17T11:30:02.488Z,15.70
2023-04-17T11:31:05.978Z,14.75
2023-04-17T11:32:12.419Z,16.98
2023-04-17T11:33:16.022Z,16.67
2023-04-17T11:34:21.686Z,15.57
2023-04-17T11:35:27.784Z,16.88
2023-04-17T11:36:31.188Z,16.70
2023-04-17T11:37:33.372Z,14.75
2023-04-17T11:38:36.615Z,17.02
2023-04-17T11:39:43.251Z,16.73
2023-04-17T11:40:48.882Z,16.10
2023-04-17T11:41:51.937Z,18.08
2023-04-17T11:42:54.993Z,15.48
2023-04-17T11:43:58.171Z,16.30
2023-04-17T11:45:04.878Z,14.57
2023-04-17T11:46:08.215Z,17.90
2023-04-17T11:47:10.921Z,16.80
2023-04-17T11:48:15.479Z,15.70
2023-04-17T11:49:27.430Z,15.57
2023-04-17T11:50:30.867Z,15.90
2023-04-17T11:51:34.936Z,15.70
2023-04-17T11:52:38.193Z,16.25
2023-04-17T11:53:48.327Z,16.05
2023-04-17T11:54:57.816Z,15.32
2023-04-17T11:56:15.354Z,15.00
2023-04-17T11:57:18.374Z,14.68
2023-04-17T11:58:21.638Z,15.35
2023-04-17T11:59:35.621Z,14.02
2023-04-17T12:00:42.963Z,13.90
2023-04-17T12:01:53.260Z,14.15
2023-04-17T12:02:56.583Z,15.35
2023-04-17T12:04:00.801Z,15.30
2023-04-17T12:05:15.302Z,15.02
2023-04-17T12:06:18.618Z,14.25
2023-04-17T12:07:24.553Z,15.00
2023-04-17T12:08:27.827Z,15.20
2023-04-17T12:09:31.847Z,14.90
2023-04-17T12:10:42.987Z,15.55
2023-04-17T12:11:46.047Z,16.48
2023-04-17T12:12:48.148Z,14.05
2023-04-17T12:13:51.209Z,14.88
2023-04-17T12:14:54.368Z,13.70
2023-04-17T12:15:58.536Z,14.60
2023-04-17T12:17:01.794Z,13.50
2023-04-17T12:18:05.730Z,14.93
2023-04-17T12:19:09.148Z,15.40
2023-04-17T12:20:12.109Z,14.60
2023-04-17T12:21:16.605Z,13.73
2023-04-17T12:22:18.811Z,15.40
2023-04-17T12:23:21.994Z,13.43
2023-04-17T12:24:25.102Z,13.45
2023-04-17T12:25:28.743Z,12.35
2023-04-17T12:26:31.872Z,12.50
2023-04-17T12:27:36.856Z,12.10
2023-04-17T12:28:40.040Z,11.57
2023-04-17T12:29:44.438Z,10.93
2023-04-17T12:30:48.078Z,12.30
2023-04-17T12:31:51.175Z,11.45
2023-04-17T12:32:53.645Z,12.90
2023-04-17T12:33:56.944Z,13.90
2023-04-17T12:34:59.019Z,14.45
2023-04-17T12:36:02.694Z,13.25
2023-04-17T12:37:06.374Z,15.27
2023-04-17T12:38:09.379Z,16.05
2023-04-17T12:39:12.852Z,14.45
2023-04-17T12:40:17.143Z,14.60
2023-04-17T12:41:20.427Z,15.10
2023-04-17T12:42:22.569Z,16.15
2023-04-17T12:43:25.803Z,15.60
2023-04-17T12:44:27.909Z,15.73
2023-04-17T12:45:31.018Z,13.27
2023-04-17T12:46:33.169Z,13.50
2023-04-17T12:47:36.473Z,11.55
2023-04-17T12:48:39.687Z,11.75
2023-04-17T12:49:41.966Z,11.65
2023-04-17T12:50:45.268Z,12.13
2023-04-17T12:51:47.484Z,12.30
2023-04-17T12:52:52.160Z,13.73
2023-04-17T12:53:54.506Z,13.15
2023-04-17T12:54:59.810Z,11.75
2023-04-17T12:56:03.833Z,11.95
2023-04-17T12:57:06.122Z,11.55
2023-04-17T12:58:10.265Z,12.13
2023-04-17T12:59:12.466Z,11.90
2023-04-17T13:00:17.256Z,11.00
2023-04-17T13:01:19.321Z,10.73
2023-04-17T13:02:23.800Z,10.43
2023-04-17T13:03:27.200Z,11.75
2023-04-17T13:04:29.710Z,11.15
2023-04-17T13:05:33.119Z,11.68
2023-04-17T13:06:35.244Z,11.23
2023-04-17T13:07:38.425Z,11.68
2023-04-17T13:08:41.996Z,12.27
2023-04-17T13:09:45.538Z,10.40
2023-04-17T13:10:48.632Z,11.60
2023-04-17T13:11:50.807Z,11.02
2023-04-17T13:12:54.161Z,10.70
2023-04-17T13:13:56.148Z,11.30
2023-04-17T13:15:00.250Z,11.80
2023-04-17T13:16:03.521Z,11.68
2023-04-17T13:17:06.220Z,11.70
2023-04-17T13:18:10.521Z,10.20
2023-04-17T13:19:13.040Z,10.80
2023-04-17T13:20:16.280Z,11.60
2023-04-17T13:21:18.464Z,9.60
2023-04-17T13:22:22.294Z,9.82
2023-04-17T13:23:24.531Z,10.63
2023-04-17T13:24:29.172Z,10.55
2023-04-17T13:25:33.837Z,10.40
2023-04-17T13:26:37.052Z,9.95
2023-04-17T13:27:43.523Z,9.88
2023-04-17T13:28:45.766Z,10.25
2023-04-17T13:29:48.911Z,9.50
2023-04-17T13:30:51.281Z,10.95
2023-04-17T13:31:54.583Z,10.65
2023-04-17T13:32:58.112Z,10.20
2023-04-17T13:34:02.943Z,9.10
2023-04-17T13:35:08.855Z,9.45
2023-04-17T13:36:17.005Z,9.50
2023-04-17T13:37:20.662Z,9.77
2023-04-17T13:38:23.342Z,9.20
2023-04-17T13:39:29.019Z,8.43
2023-04-17T13:40:36.941Z,9.55
2023-04-17T13:41:45.334Z,9.20
2023-04-17T13:42:52.531Z,7.82
2023-04-17T13:44:02.398Z,8.77
2023-04-17T13:45:06.820Z,8.18
2023-04-17T13:46:09.625Z,7.32
2023-04-17T13:47:15.767Z,8.75
2023-04-17T13:48:18.372Z,9.45
2023-04-17T13:49:24.054Z,8.23
2023-04-17T13:50:27.282Z,8.82
2023-04-17T13:51:29.559Z,8.07
2023-04-17T13:52:32.720Z,8.38
2023-04-17T13:53:35.244Z,7.70
2023-04-17T13:54:39.811Z,8.30
2023-04-17T13:55:42.131Z,8.10
2023-04-17T13:56:45.565Z,8.45
2023-04-17T13:57:47.832Z,8.52
2023-04-17T13:58:52.304Z,8.80
2023-04-17T13:59:54.658Z,8.48
2023-04-17T14:00:57.880Z,7.90
2023-04-17T14:02:03.763Z,8.55
2023-04-17T14:03:06.563Z,8.32
2023-04-17T14:04:10.168Z,8.35
2023-04-17T14:05:12.491Z,7.30
2023-04-17T14:06:17.895Z,7.57
2023-04-17T14:07:21.071Z,8.05